Time;durP1;ratioP1;P1;durP2;ratioP2;P2;SDS_P1;SDS_P2;PMS_P1;PMS_P2;Temp;Humidity;BMP_temperature;BMP_pressure;BME280_temperature;BME280_humidity;BME280_pressure;Samples;Min_cycle;Max_cycle;Signal;HPM_P1;HPM_P2
2022/10/26 00:00:11;;;;;;;10.37;6.10;;;13.20;37.00;;;;;;4961055;28;20502;-60
2022/10/26 00:02:37;;;;;;;12.90;7.00;;;13.20;36.80;;;;;;4970530;28;20833;-61
2022/10/26 00:05:05;;;;;;;8.47;5.07;;;13.20;36.70;;;;;;4976292;28;20474;-61
2022/10/26 00:07:31;;;;;;;9.73;5.90;;;13.20;36.80;;;;;;4974852;28;20461;-61
2022/10/26 00:09:58;;;;;;;17.47;5.80;;;13.20;36.70;;;;;;4966198;28;20476;-61
2022/10/26 00:12:25;;;;;;;10.87;5.63;;;13.10;36.70;;;;;;4960955;28;20461;-61
2022/10/26 00:14:52;;;;;;;11.87;5.63;;;13.10;36.70;;;;;;4966141;28;20466;-60
2022/10/26 00:17:20;;;;;;;11.97;6.10;;;13.10;36.80;;;;;;4965544;28;20469;-60
2022/10/26 00:19:47;;;;;;;12.30;6.03;;;13.10;37.00;;;;;;4970646;28;20465;-61
2022/10/26 00:22:13;;;;;;;13.50;6.27;;;13.10;37.10;;;;;;4962858;28;20481;-60
2022/10/26 00:24:40;;;;;;;8.60;4.77;;;13.10;37.20;;;;;;4958099;28;20471;-60
2022/10/26 00:27:07;;;;;;;8.43;5.70;;;13.00;37.20;;;;;;4963518;28;20493;-61
2022/10/26 00:29:33;;;;;;;11.23;5.60;;;13.00;37.20;;;;;;4972642;28;20990;-60
2022/10/26 00:32:00;;;;;;;8.17;5.40;;;13.00;37.30;;;;;;4967291;28;20481;-60
2022/10/26 00:34:28;;;;;;;12.87;6.87;;;13.00;37.40;;;;;;4968870;28;20469;-61
2022/10/26 00:36:55;;;;;;;11.13;5.23;;;13.00;37.60;;;;;;4958030;28;20481;-61
2022/10/26 00:39:22;;;;;;;9.30;5.77;;;13.00;38.30;;;;;;4967236;28;20470;-61
2022/10/26 00:41:49;;;;;;;9.63;5.50;;;13.00;37.80;;;;;;4962298;28;20593;-61
2022/10/26 00:45:07;;;;;;;10.07;6.27;;;13.00;37.90;;;;;;4967275;28;20483;-61
2022/10/26 00:47:47;;;;;;;9.80;6.30;;;13.00;38.20;;;;;;4888939;29;20469;-60
2022/10/26 00:50:19;;;;;;;10.83;6.10;;;13.00;38.10;;;;;;4888627;29;20587;-61
2022/10/26 00:52:47;;;;;;;8.57;5.53;;;13.10;37.90;;;;;;4929567;28;20456;-61
2022/10/26 00:55:13;;;;;;;13.13;6.83;;;13.10;38.30;;;;;;4967940;28;20462;-61
2022/10/26 00:57:41;;;;;;;7.70;5.97;;;13.10;38.20;;;;;;4964391;28;21207;-61
2022/10/26 01:00:09;;;;;;;11.03;6.03;;;13.10;38.20;;;;;;4961762;28;20500;-61
2022/10/26 01:02:36;;;;;;;18.63;6.53;;;13.20;38.10;;;;;;4967073;28;20478;-61
2022/10/26 01:05:05;;;;;;;14.43;5.97;;;13.20;38.00;;;;;;4962159;28;20465;-60
2022/10/26 01:07:34;;;;;;;7.93;5.67;;;13.20;38.00;;;;;;4977082;28;20496;-61
2022/10/26 01:10:01;;;;;;;9.00;5.70;;;13.10;38.20;;;;;;4963544;28;20490;-61
2022/10/26 01:12:28;;;;;;;8.40;5.90;;;13.20;38.10;;;;;;4962104;28;20963;-61
2022/10/26 01:14:55;;;;;;;11.37;8.10;;;13.20;38.20;;;;;;4961633;28;20546;-61
2022/10/26 01:17:33;;;;;;;11.03;5.77;;;13.20;38.20;;;;;;4962743;28;20462;-61
2022/10/26 01:20:36;;;;;;;8.63;6.07;;;13.20;38.20;;;;;;4965807;28;21023;-61
2022/10/26 01:23:11;;;;;;;8.90;5.90;;;13.20;38.20;;;;;;4963182;28;20482;-60
2022/10/26 01:26:08;;;;;;;11.57;5.67;;;13.20;38.20;;;;;;4963649;28;20989;-61
2022/10/26 01:28:50;;;;;;;10.57;5.90;;;13.20;38.40;;;;;;4968556;28;20470;-61
2022/10/26 01:31:25;;;;;;;10.50;5.70;;;13.20;38.30;;;;;;4962282;28;20489;-61
2022/10/26 01:33:59;;;;;;;10.40;6.17;;;13.20;38.40;;;;;;4962365;28;20460;-60
2022/10/26 01:36:33;;;;;;;14.87;5.87;;;13.20;38.20;;;;;;4968164;28;20470;-61
2022/10/26 01:39:05;;;;;;;7.50;5.40;;;13.20;38.20;;;;;;4968131;28;20468;-61
2022/10/26 01:41:36;;;;;;;9.13;6.33;;;13.20;38.30;;;;;;4959150;28;20480;-61
2022/10/26 01:44:07;;;;;;;10.00;6.37;;;13.20;38.40;;;;;;4957635;28;20513;-61
2022/10/26 01:46:38;;;;;;;9.03;6.63;;;13.20;38.50;;;;;;4967964;28;20462;-60
2022/10/26 01:49:10;;;;;;;9.17;6.00;;;13.10;38.60;;;;;;4960907;28;20468;-61
2022/10/26 01:51:39;;;;;;;10.47;6.20;;;13.10;38.70;;;;;;4957985;28;20482;-61
2022/10/26 01:54:05;;;;;;;11.70;6.93;;;13.10;38.70;;;;;;4959827;28;21143;-60
2022/10/26 01:56:36;;;;;;;9.63;5.90;;;13.20;38.60;;;;;;4965081;28;20463;-60
2022/10/26 01:59:18;;;;;;;9.17;5.20;;;13.20;38.50;;;;;;4974580;28;20454;-60
2022/10/26 02:04:33;;;;;;;7.77;5.13;;;13.20;38.40;;;;;;4995278;28;21066;-67
2022/10/26 02:07:03;;;;;;;14.40;6.27;;;13.20;38.50;;;;;;4996728;28;20465;-68
2022/10/26 02:09:37;;;;;;;12.97;7.27;;;13.20;38.30;;;;;;4992191;28;20459;-67
2022/10/26 02:12:13;;;;;;;9.80;6.27;;;13.20;38.50;;;;;;4996064;28;20468;-67
2022/10/26 02:14:48;;;;;;;12.27;5.50;;;13.20;38.40;;;;;;5000392;28;20472;-67
2022/10/26 02:17:22;;;;;;;13.03;5.93;;;13.10;38.50;;;;;;4992216;28;20478;-68
2022/10/26 02:19:54;;;;;;;8.50;5.47;;;13.10;38.30;;;;;;4999107;28;20463;-67
2022/10/26 02:22:26;;;;;;;11.20;7.03;;;13.10;38.90;;;;;;4999534;28;20483;-68
2022/10/26 02:24:54;;;;;;;9.07;5.53;;;13.10;38.40;;;;;;4999581;28;20837;-67
2022/10/26 02:27:25;;;;;;;10.10;5.80;;;13.10;38.30;;;;;;4999687;28;20463;-67
2022/10/26 02:29:55;;;;;;;10.30;6.23;;;13.00;38.40;;;;;;5001912;28;20464;-67
2022/10/26 02:32:24;;;;;;;10.03;5.80;;;13.00;38.50;;;;;;4997588;28;20487;-67
2022/10/26 02:34:56;;;;;;;10.23;6.03;;;13.00;38.50;;;;;;5001810;28;20456;-67
2022/10/26 02:37:25;;;;;;;11.10;6.50;;;13.10;38.50;;;;;;5001300;28;20456;-66
2022/10/26 02:39:55;;;;;;;8.80;5.17;;;13.10;38.40;;;;;;4993960;28;20465;-66
2022/10/26 02:45:48;;;;;;;11.70;5.87;;;12.90;38.80;;;;;;4995727;28;21005;-66
2022/10/26 02:48:15;;;;;;;12.27;6.13;;;12.90;38.90;;;;;;4995133;28;20979;-68
2022/10/26 02:50:53;;;;;;;10.03;5.90;;;12.90;38.80;;;;;;4998352;28;20491;-68
2022/10/26 02:53:26;;;;;;;10.00;5.77;;;12.90;39.10;;;;;;4999595;28;20479;-68
2022/10/26 02:55:53;;;;;;;9.43;5.80;;;12.90;39.10;;;;;;4998409;28;20950;-66
2022/10/26 02:58:24;;;;;;;8.27;6.00;;;12.90;39.00;;;;;;5004713;28;20456;-66
2022/10/26 03:00:52;;;;;;;13.60;6.30;;;12.90;39.10;;;;;;4999566;28;20468;-66
2022/10/26 03:03:20;;;;;;;11.90;6.13;;;12.90;39.00;;;;;;4993776;28;20919;-67
2022/10/26 03:05:48;;;;;;;9.87;6.43;;;12.80;39.10;;;;;;4996614;28;20555;-66
2022/10/26 03:08:15;;;;;;;8.90;5.80;;;12.90;39.10;;;;;;4997091;28;20464;-66
2022/10/26 03:10:43;;;;;;;12.43;5.80;;;12.90;39.10;;;;;;5003461;28;20475;-66
2022/10/26 03:13:11;;;;;;;11.60;5.17;;;12.80;39.10;;;;;;5006494;28;20563;-66
2022/10/26 03:15:39;;;;;;;12.20;6.37;;;12.80;39.00;;;;;;4999150;28;20459;-66
2022/10/26 03:18:06;;;;;;;11.30;5.03;;;12.70;39.00;;;;;;4995063;28;20476;-66
2022/10/26 03:20:33;;;;;;;16.00;6.83;;;12.70;39.10;;;;;;4999792;28;20472;-66
2022/10/26 03:23:01;;;;;;;10.53;6.50;;;12.70;39.10;;;;;;5000497;28;20480;-66
2022/10/26 03:25:28;;;;;;;9.80;6.33;;;12.70;39.20;;;;;;4999963;28;20706;-66
2022/10/26 03:27:58;;;;;;;11.43;6.40;;;12.60;39.10;;;;;;4999603;28;20460;-66
2022/10/26 03:30:25;;;;;;;8.63;5.80;;;12.70;39.50;;;;;;4994941;28;20503;-66
2022/10/26 03:32:52;;;;;;;7.20;5.60;;;12.80;39.20;;;;;;4998186;28;20856;-66
2022/10/26 03:35:19;;;;;;;11.40;6.50;;;12.70;39.20;;;;;;4992776;28;20473;-66
2022/10/26 03:37:46;;;;;;;10.13;6.00;;;12.70;40.50;;;;;;4990311;28;20225;-66
2022/10/26 03:40:15;;;;;;;9.70;5.20;;;12.80;39.50;;;;;;4994688;28;20467;-66
2022/10/26 03:42:41;;;;;;;9.53;6.20;;;12.80;39.30;;;;;;4991932;28;20496;-70
2022/10/26 03:45:10;;;;;;;9.40;6.20;;;12.90;39.20;;;;;;4994352;28;20537;-71
2022/10/26 03:47:43;;;;;;;10.07;6.03;;;12.90;39.30;;;;;;4992872;28;21002;-67
2022/10/26 03:50:11;;;;;;;9.27;6.53;;;12.90;39.30;;;;;;5002656;28;20539;-66
2022/10/26 03:52:38;;;;;;;13.10;6.47;;;12.80;39.30;;;;;;4990399;28;20480;-66
2022/10/26 03:55:06;;;;;;;12.00;6.50;;;12.90;39.40;;;;;;4995451;28;20452;-66
2022/10/26 03:57:34;;;;;;;8.97;6.30;;;12.90;39.30;;;;;;4994447;28;20466;-67
2022/10/26 04:00:01;;;;;;;10.00;6.20;;;12.90;39.40;;;;;;5001058;28;20899;-67
2022/10/26 04:02:27;;;;;;;12.20;6.60;;;13.00;39.60;;;;;;4991781;28;20538;-67
2022/10/26 04:04:54;;;;;;;11.17;7.67;;;13.00;39.50;;;;;;4993386;28;20488;-67
2022/10/26 04:07:21;;;;;;;9.97;6.63;;;13.00;39.70;;;;;;4994208;28;20460;-68
2022/10/26 04:09:47;;;;;;;8.87;6.67;;;13.00;39.50;;;;;;5000406;28;20470;-68
2022/10/26 04:12:14;;;;;;;12.63;6.60;;;13.00;39.50;;;;;;4998182;28;20491;-68
2022/10/26 04:14:42;;;;;;;10.80;6.90;;;13.10;39.50;;;;;;5001748;28;20468;-68
2022/10/26 04:17:09;;;;;;;15.93;7.90;;;13.00;39.70;;;;;;5000309;28;20476;-68
2022/10/26 04:19:36;;;;;;;23.90;8.50;;;13.10;39.70;;;;;;4990835;28;20460;-68
2022/10/26 04:22:03;;;;;;;11.77;7.50;;;13.20;39.50;;;;;;5007122;28;20463;-68
2022/10/26 04:24:29;;;;;;;15.03;8.33;;;13.20;39.40;;;;;;4999881;28;20487;-68
2022/10/26 04:26:56;;;;;;;12.87;6.50;;;13.20;39.50;;;;;;4999640;28;20844;-68
2022/10/26 04:29:23;;;;;;;12.87;7.03;;;13.30;39.50;;;;;;5001458;28;20453;-67
2022/10/26 04:31:51;;;;;;;10.83;6.30;;;13.20;39.40;;;;;;4999405;28;20476;-67
2022/10/26 04:34:18;;;;;;;11.67;6.60;;;13.30;39.70;;;;;;4997196;28;20475;-68
2022/10/26 04:36:44;;;;;;;10.47;6.80;;;13.30;39.60;;;;;;4993694;28;20471;-68
2022/10/26 04:39:11;;;;;;;9.93;6.50;;;13.30;39.70;;;;;;5005535;28;20461;-68
2022/10/26 04:41:38;;;;;;;11.30;6.47;;;13.30;39.70;;;;;;4998681;28;20462;-68
2022/10/26 04:44:05;;;;;;;10.57;5.70;;;13.30;39.80;;;;;;5003103;28;20570;-68
2022/10/26 04:46:32;;;;;;;11.97;6.63;;;13.40;39.70;;;;;;5000867;28;22615;-68
2022/10/26 04:49:00;;;;;;;11.63;5.87;;;13.30;39.70;;;;;;5007031;28;20455;-68
2022/10/26 04:51:27;;;;;;;11.50;5.53;;;13.30;39.80;;;;;;4999294;28;20472;-68
2022/10/26 04:53:54;;;;;;;12.23;6.70;;;13.30;39.70;;;;;;5004608;28;20475;-68
2022/10/26 04:56:20;;;;;;;15.30;6.90;;;13.30;39.80;;;;;;4999306;28;20466;-68
2022/10/26 04:58:47;;;;;;;12.37;5.50;;;13.30;39.80;;;;;;5005005;28;20449;-68
2022/10/26 05:01:14;;;;;;;10.80;5.77;;;13.30;39.70;;;;;;5006705;28;20467;-68
2022/10/26 05:03:41;;;;;;;12.73;6.20;;;13.40;39.80;;;;;;5000060;28;20494;-68
2022/10/26 05:06:09;;;;;;;9.80;5.70;;;13.40;39.80;;;;;;4995913;28;20463;-68
2022/10/26 05:08:36;;;;;;;12.27;6.43;;;13.40;39.70;;;;;;4991917;28;21075;-68
2022/10/26 05:11:02;;;;;;;11.47;5.60;;;13.30;39.80;;;;;;5001957;28;20847;-70
2022/10/26 05:13:29;;;;;;;11.10;5.90;;;13.30;39.90;;;;;;5004447;28;20479;-71
2022/10/26 05:15:56;;;;;;;10.87;6.87;;;13.40;39.90;;;;;;5007376;28;20459;-70
2022/10/26 05:18:23;;;;;;;8.10;5.10;;;13.30;40.00;;;;;;5001889;28;20459;-68
2022/10/26 05:20:52;;;;;;;8.87;5.13;;;13.40;39.90;;;;;;5002486;28;20464;-68
2022/10/26 05:23:21;;;;;;;10.27;5.50;;;13.40;39.70;;;;;;4999477;28;20479;-70
2022/10/26 05:25:49;;;;;;;10.73;5.03;;;13.40;40.40;;;;;;4999855;28;21209;-68
2022/10/26 05:28:17;;;;;;;10.40;5.90;;;13.40;40.10;;;;;;4993872;28;20470;-70
2022/10/26 05:30:45;;;;;;;9.97;5.20;;;13.30;40.00;;;;;;5004529;28;20463;-70
2022/10/26 05:33:13;;;;;;;11.03;6.20;;;13.30;40.10;;;;;;4995724;28;20845;-70
2022/10/26 05:35:40;;;;;;;11.87;6.00;;;13.30;40.10;;;;;;4999755;28;20839;-70
2022/10/26 05:38:08;;;;;;;12.13;5.07;;;13.30;40.10;;;;;;5003617;28;20456;-70
2022/10/26 05:40:36;;;;;;;11.70;5.40;;;13.30;40.40;;;;;;5006392;28;20463;-69
2022/10/26 05:43:03;;;;;;;14.03;6.20;;;13.30;40.50;;;;;;5004172;28;20487;-69
2022/10/26 05:45:30;;;;;;;13.13;5.00;;;13.30;40.40;;;;;;5006108;28;20484;-70
2022/10/26 05:47:57;;;;;;;9.83;5.60;;;13.30;40.40;;;;;;4995007;28;20460;-69
2022/10/26 05:50:24;;;;;;;13.00;5.47;;;13.30;40.50;;;;;;4991938;28;20953;-69
2022/10/26 05:52:51;;;;;;;11.30;6.33;;;13.30;40.50;;;;;;5005390;28;20583;-70
2022/10/26 05:55:18;;;;;;;12.00;6.30;;;13.30;40.50;;;;;;5006320;28;20466;-69
2022/10/26 05:57:47;;;;;;;12.43;6.10;;;13.30;40.60;;;;;;4996678;28;20684;-69
2022/10/26 06:00:19;;;;;;;9.90;5.23;;;13.30;40.80;;;;;;5002285;28;20463;-69
2022/10/26 06:03:02;;;;;;;10.50;5.40;;;13.30;40.90;;;;;;5006044;28;20490;-70
2022/10/26 06:05:34;;;;;;;8.83;4.50;;;13.40;41.10;;;;;;5006042;28;20475;-70
2022/10/26 06:08:01;;;;;;;8.23;5.03;;;13.40;40.80;;;;;;5004950;28;20586;-69
2022/10/26 06:10:28;;;;;;;7.60;4.67;;;13.40;40.80;;;;;;5000157;28;20475;-69
2022/10/26 06:12:56;;;;;;;9.63;5.23;;;13.40;40.70;;;;;;5004378;28;21099;-69
2022/10/26 06:15:24;;;;;;;9.40;5.10;;;13.40;40.90;;;;;;5006935;28;20963;-69
2022/10/26 06:17:59;;;;;;;11.10;5.30;;;13.50;40.80;;;;;;5005620;28;20456;-69
2022/10/26 06:20:44;;;;;;;7.57;5.10;;;13.50;41.00;;;;;;5003491;28;20456;-69
2022/10/26 06:23:39;;;;;;;7.13;4.90;;;13.50;41.00;;;;;;5003525;28;20480;-69
2022/10/26 06:26:15;;;;;;;8.77;4.90;;;13.50;41.00;;;;;;5002685;28;20451;-69
2022/10/26 06:28:50;;;;;;;10.80;5.20;;;13.50;40.90;;;;;;5003725;28;20685;-69
2022/10/26 06:31:16;;;;;;;10.97;5.87;;;13.60;40.70;;;;;;4997925;28;20479;-69
2022/10/26 06:33:43;;;;;;;8.63;5.43;;;13.60;40.90;;;;;;5003438;28;20495;-70
2022/10/26 06:36:21;;;;;;;8.93;5.27;;;13.60;40.70;;;;;;5003718;28;20460;-70
2022/10/26 06:38:49;;;;;;;7.43;4.33;;;13.70;40.70;;;;;;5006030;28;20451;-69
2022/10/26 06:41:17;;;;;;;9.50;5.40;;;13.70;40.70;;;;;;5006858;28;20456;-70
2022/10/26 06:43:46;;;;;;;8.20;4.53;;;13.70;40.80;;;;;;5002106;28;20475;-69
2022/10/26 06:46:22;;;;;;;11.17;4.83;;;13.70;41.30;;;;;;5006154;28;20471;-69
2022/10/26 06:48:55;;;;;;;11.53;5.50;;;13.70;40.70;;;;;;5006385;28;20456;-70
2022/10/26 06:51:24;;;;;;;7.33;4.10;;;13.70;40.70;;;;;;5003212;28;20508;-69
2022/10/26 06:53:56;;;;;;;8.00;4.60;;;13.70;40.70;;;;;;5009142;28;20498;-69
2022/10/26 06:56:23;;;;;;;11.67;5.20;;;13.80;40.80;;;;;;5004786;28;20464;-69
2022/10/26 06:58:55;;;;;;;10.07;5.00;;;13.80;40.70;;;;;;5008874;28;20464;-69
2022/10/26 07:01:21;;;;;;;10.53;5.47;;;13.80;40.40;;;;;;5004860;28;20479;-70
2022/10/26 07:03:48;;;;;;;7.53;4.33;;;13.90;40.50;;;;;;5006528;28;20488;-70
2022/10/26 07:06:15;;;;;;;12.03;4.80;;;14.20;41.30;;;;;;5008558;28;20484;-69
2022/10/26 07:08:41;;;;;;;11.40;4.80;;;14.60;40.00;;;;;;5007474;28;21323;-70
2022/10/26 07:11:09;;;;;;;6.57;4.40;;;15.00;39.50;;;;;;5007529;28;20951;-69
2022/10/26 07:13:35;;;;;;;10.03;4.40;;;15.40;39.00;;;;;;5002899;28;20486;-69
2022/10/26 07:16:04;;;;;;;9.77;4.00;;;15.70;37.90;;;;;;5005786;28;20462;-69
2022/10/26 07:18:30;;;;;;;8.30;4.50;;;15.80;36.80;;;;;;5005499;28;20551;-70
2022/10/26 07:20:58;;;;;;;10.70;4.47;;;15.80;35.90;;;;;;4997997;28;20614;-70
2022/10/26 07:23:25;;;;;;;9.07;3.70;;;15.80;34.80;;;;;;4998655;28;20484;-70
2022/10/26 07:25:52;;;;;;;9.17;4.63;;;15.80;34.50;;;;;;5005193;28;20502;-70
2022/10/26 07:28:19;;;;;;;9.10;5.90;;;15.70;34.70;;;;;;5001034;28;20467;-70
2022/10/26 07:30:45;;;;;;;12.00;5.10;;;15.70;34.70;;;;;;5001753;28;20483;-70
2022/10/26 07:33:14;;;;;;;9.60;4.87;;;15.60;34.90;;;;;;5003874;28;20567;-70
2022/10/26 07:35:41;;;;;;;7.17;4.67;;;15.60;35.10;;;;;;4999251;28;21158;-69
2022/10/26 07:38:09;;;;;;;9.57;4.87;;;15.50;35.30;;;;;;5008278;28;20486;-70
2022/10/26 07:40:36;;;;;;;11.03;5.13;;;15.40;35.60;;;;;;5007562;28;20471;-70
2022/10/26 07:43:03;;;;;;;6.50;3.87;;;15.50;35.80;;;;;;5002175;28;20964;-69
2022/10/26 07:45:31;;;;;;;10.00;4.30;;;15.60;35.60;;;;;;5006218;28;20484;-69
2022/10/26 07:47:57;;;;;;;9.23;4.30;;;15.70;35.70;;;;;;5003893;28;20467;-70
2022/10/26 07:50:26;;;;;;;9.20;4.53;;;15.80;35.60;;;;;;5010421;28;20456;-70
2022/10/26 07:52:53;;;;;;;7.67;4.40;;;15.80;35.50;;;;;;5003775;28;20495;-69
2022/10/26 07:55:20;;;;;;;6.77;3.97;;;15.80;35.40;;;;;;5004795;28;20452;-70
2022/10/26 07:57:46;;;;;;;12.50;5.00;;;15.80;35.50;;;;;;4995412;28;20460;-70
2022/10/26 08:00:14;;;;;;;8.90;4.87;;;15.80;35.50;;;;;;5005143;28;20555;-70
2022/10/26 08:02:41;;;;;;;7.53;5.30;;;15.90;35.40;;;;;;4999359;28;20504;-70
2022/10/26 08:05:08;;;;;;;10.50;4.90;;;15.90;35.50;;;;;;5005752;28;20479;-70
2022/10/26 08:07:42;;;;;;;12.37;4.60;;;15.90;35.60;;;;;;5006714;28;20471;-70
2022/10/26 08:10:10;;;;;;;10.00;5.10;;;15.90;35.90;;;;;;4999522;28;20460;-70
2022/10/26 08:12:37;;;;;;;8.60;4.63;;;16.00;35.70;;;;;;5005468;28;20483;-69
2022/10/26 08:15:05;;;;;;;9.40;4.30;;;16.80;36.00;;;;;;5004291;28;20472;-69
2022/10/26 08:17:32;;;;;;;8.87;4.30;;;18.80;32.10;;;;;;5003999;28;20467;-69
2022/10/26 08:19:59;;;;;;;7.70;3.93;;;20.50;27.70;;;;;;5002445;28;20468;-70
2022/10/26 08:22:25;;;;;;;7.23;4.03;;;22.10;22.80;;;;;;4999858;28;20480;-70
2022/10/26 08:24:53;;;;;;;7.30;3.67;;;22.50;19.90;;;;;;5006517;28;20858;-70
2022/10/26 08:27:20;;;;;;;8.30;4.20;;;24.20;17.20;;;;;;5001043;28;20460;-71
2022/10/26 08:29:47;;;;;;;8.90;3.30;;;24.60;14.60;;;;;;5006066;28;20464;-70
2022/10/26 08:32:14;;;;;;;7.07;3.30;;;23.90;14.70;;;;;;4997645;28;20534;-70
2022/10/26 08:34:40;;;;;;;7.20;4.23;;;23.40;15.50;;;;;;5002979;28;20460;-69
2022/10/26 08:37:07;;;;;;;6.20;3.17;;;23.70;15.40;;;;;;5008360;28;20464;-69
2022/10/26 08:39:34;;;;;;;7.27;3.97;;;25.50;12.90;;;;;;5009444;28;20460;-69
2022/10/26 08:42:09;;;;;;;8.20;3.50;;;26.80;9.60;;;;;;5007986;28;20467;-69
2022/10/26 08:44:39;;;;;;;8.17;3.10;;;27.10;9.20;;;;;;5000491;28;20466;-69
2022/10/26 08:47:13;;;;;;;5.97;3.70;;;27.10;8.60;;;;;;5009268;28;20967;-69
2022/10/26 08:49:45;;;;;;;6.10;3.30;;;26.10;9.10;;;;;;5000942;28;20466;-69
2022/10/26 08:52:17;;;;;;;7.93;2.87;;;25.30;10.40;;;;;;5003459;28;20483;-69
2022/10/26 08:54:49;;;;;;;7.07;3.03;;;25.20;10.80;;;;;;4995272;28;20467;-69
2022/10/26 08:57:24;;;;;;;6.27;3.80;;;25.10;10.70;;;;;;4996528;28;21011;-69
2022/10/26 08:59:57;;;;;;;10.80;3.47;;;25.00;10.70;;;;;;4993733;28;20463;-69
2022/10/26 09:02:24;;;;;;;6.43;3.50;;;24.50;11.70;;;;;;5006334;28;20464;-69
2022/10/26 09:04:52;;;;;;;6.50;3.77;;;23.90;12.50;;;;;;5003748;28;20817;-69
2022/10/26 09:07:32;;;;;;;6.63;3.57;;;23.40;13.40;;;;;;5006396;28;20467;-69
2022/10/26 09:10:08;;;;;;;8.83;3.53;;;23.00;14.40;;;;;;5002901;28;20464;-69
2022/10/26 09:12:45;;;;;;;10.00;3.30;;;22.70;15.60;;;;;;5003775;28;20482;-68
2022/10/26 09:15:20;;;;;;;6.13;3.03;;;22.50;15.90;;;;;;4991363;28;20483;-69
2022/10/26 09:17:57;;;;;;;15.20;3.17;;;22.10;16.30;;;;;;4996817;28;20470;-69
2022/10/26 09:20:49;;;;;;;8.67;3.40;;;21.80;17.10;;;;;;5000706;28;20460;-69
2022/10/26 09:23:31;;;;;;;5.73;2.83;;;21.40;18.20;;;;;;5003764;28;20504;-69
2022/10/26 09:26:00;;;;;;;7.93;4.03;;;21.00;18.70;;;;;;5005356;28;20502;-69
2022/10/26 09:28:34;;;;;;;6.43;3.07;;;20.70;19.80;;;;;;5007655;28;20460;-69
2022/10/26 09:31:02;;;;;;;9.13;3.63;;;20.40;20.50;;;;;;5001604;28;20468;-69
2022/10/26 09:33:31;;;;;;;6.90;3.60;;;20.20;21.40;;;;;;4998400;28;20483;-69
2022/10/26 09:36:01;;;;;;;7.37;4.20;;;20.00;21.90;;;;;;5000890;28;20486;-69
2022/10/26 09:38:30;;;;;;;8.77;4.30;;;19.70;22.70;;;;;;4996551;28;20471;-68
2022/10/26 09:41:02;;;;;;;11.30;5.03;;;19.60;23.20;;;;;;5000268;28;20471;-69
2022/10/26 09:43:38;;;;;;;7.87;3.73;;;19.40;24.10;;;;;;5000662;28;20488;-69
2022/10/26 09:46:05;;;;;;;6.40;3.57;;;19.30;24.80;;;;;;5007182;28;20498;-69
2022/10/26 09:48:38;;;;;;;8.37;4.23;;;19.20;25.20;;;;;;5006228;28;20941;-69
2022/10/26 09:51:05;;;;;;;8.70;3.90;;;19.10;25.60;;;;;;5005933;28;20464;-69
2022/10/26 09:53:32;;;;;;;6.40;3.97;;;19.20;26.10;;;;;;4999302;28;20847;-68
2022/10/26 09:56:04;;;;;;;9.13;3.60;;;19.30;25.90;;;;;;4999367;28;20460;-69
2022/10/26 09:58:36;;;;;;;6.13;3.40;;;19.50;25.80;;;;;;4998528;28;20989;-69
2022/10/26 10:01:03;;;;;;;8.07;4.67;;;19.70;25.30;;;;;;4996716;28;20522;-68
2022/10/26 10:03:32;;;;;;;7.60;3.23;;;19.90;25.30;;;;;;5002004;28;20495;-68
2022/10/26 10:06:16;;;;;;;7.63;3.20;;;20.00;24.70;;;;;;5005561;28;20839;-67
2022/10/26 10:08:45;;;;;;;10.00;4.07;;;20.10;24.20;;;;;;5007199;28;20455;-67
2022/10/26 10:11:14;;;;;;;6.13;3.43;;;20.20;23.90;;;;;;5006175;28;20539;-67
2022/10/26 10:13:43;;;;;;;7.40;3.07;;;20.40;24.20;;;;;;5003053;28;20610;-67
2022/10/26 10:16:13;;;;;;;7.60;2.60;;;20.50;24.10;;;;;;5001906;28;20455;-68
2022/10/26 10:18:41;;;;;;;8.93;2.70;;;20.50;23.90;;;;;;5005077;28;20464;-68
2022/10/26 10:21:09;;;;;;;6.60;2.60;;;20.40;23.40;;;;;;5003301;28;20460;-67
2022/10/26 10:23:46;;;;;;;11.10;2.80;;;20.40;23.20;;;;;;5006172;28;20506;-67
2022/10/26 10:26:12;;;;;;;9.17;2.60;;;20.40;23.60;;;;;;5004201;28;20486;-67
2022/10/26 10:28:42;;;;;;;7.90;2.87;;;20.30;24.20;;;;;;5002091;28;20470;-67
2022/10/26 10:31:20;;;;;;;9.30;2.77;;;20.30;24.40;;;;;;5002285;28;20464;-67
2022/10/26 10:33:48;;;;;;;7.00;3.10;;;20.20;24.20;;;;;;4999791;28;20488;-67
2022/10/26 10:36:18;;;;;;;6.73;3.17;;;20.20;23.80;;;;;;5003951;28;20461;-67
2022/10/26 10:38:46;;;;;;;7.73;2.60;;;20.20;23.90;;;;;;5002394;28;20975;-69
2022/10/26 10:41:20;;;;;;;6.47;2.80;;;20.20;24.50;;;;;;5003288;28;20459;-69
2022/10/26 10:43:51;;;;;;;9.70;2.60;;;20.20;24.90;;;;;;4999162;28;20875;-69
2022/10/26 10:46:23;;;;;;;9.60;3.17;;;20.30;24.70;;;;;;5002253;28;20479;-69
2022/10/26 10:49:02;;;;;;;6.07;2.73;;;20.50;24.50;;;;;;4995556;28;20463;-69
2022/10/26 10:51:34;;;;;;;7.80;2.50;;;20.70;24.30;;;;;;5002793;28;20463;-69
2022/10/26 10:54:01;;;;;;;10.27;2.60;;;20.90;24.00;;;;;;5005806;28;20486;-67
2022/10/26 10:56:36;;;;;;;7.60;2.33;;;21.00;23.30;;;;;;5004880;28;21163;-69
2022/10/26 10:59:46;;;;;;;9.30;2.80;;;21.00;23.10;;;;;;5001209;28;20466;-69
2022/10/26 11:02:41;;;;;;;8.90;2.63;;;20.90;22.90;;;;;;4959295;28;21158;-67
2022/10/26 11:05:22;;;;;;;9.90;3.57;;;20.80;23.00;;;;;;4995379;28;20460;-67
2022/10/26 11:07:54;;;;;;;8.13;2.80;;;20.80;22.90;;;;;;4998741;28;20468;-69
2022/10/26 11:10:26;;;;;;;7.13;2.80;;;20.90;22.50;;;;;;4998470;28;20456;-69
2022/10/26 11:12:57;;;;;;;9.27;2.80;;;20.90;22.60;;;;;;5006051;28;20488;-69
2022/10/26 11:15:29;;;;;;;6.53;2.50;;;20.90;22.80;;;;;;5001400;28;20456;-69
2022/10/26 11:18:03;;;;;;;7.80;2.27;;;20.80;22.90;;;;;;4999833;28;20483;-71
2022/10/26 11:20:33;;;;;;;7.50;2.80;;;20.80;22.40;;;;;;4997992;28;21164;-70
2022/10/26 11:23:05;;;;;;;9.20;2.40;;;20.80;22.50;;;;;;5002009;28;20579;-69
2022/10/26 11:25:36;;;;;;;7.23;2.67;;;20.80;22.40;;;;;;4997797;28;20555;-69
2022/10/26 11:28:10;;;;;;;8.90;2.90;;;20.80;22.80;;;;;;5001879;28;20467;-69
2022/10/26 11:30:46;;;;;;;7.93;2.50;;;21.00;22.90;;;;;;5002002;28;20891;-69
2022/10/26 11:33:18;;;;;;;12.50;2.50;;;21.50;22.20;;;;;;5000769;28;20475;-69
2022/10/26 11:35:53;;;;;;;5.90;1.90;;;21.70;20.10;;;;;;5003367;28;20448;-68
2022/10/26 11:38:26;;;;;;;7.90;2.30;;;21.70;20.00;;;;;;5007616;28;20455;-68
2022/10/26 11:41:00;;;;;;;9.33;2.60;;;21.90;19.60;;;;;;5005294;28;20467;-68
2022/10/26 11:43:34;;;;;;;8.17;2.90;;;22.50;19.10;;;;;;5006962;28;20483;-68
2022/10/26 11:46:09;;;;;;;13.73;2.03;;;23.60;17.50;;;;;;5007281;28;20906;-69
2022/10/26 11:48:43;;;;;;;12.87;3.87;;;24.20;14.70;;;;;;4998882;28;20980;-68
2022/10/26 11:51:17;;;;;;;9.13;3.20;;;24.70;14.80;;;;;;5003318;28;20461;-68
2022/10/26 11:53:47;;;;;;;7.57;2.50;;;25.10;13.70;;;;;;5009279;28;20470;-68
2022/10/26 11:56:19;;;;;;;9.10;2.20;;;25.40;12.70;;;;;;5006253;28;20456;-68
2022/10/26 11:58:46;;;;;;;7.50;2.77;;;26.00;12.40;;;;;;5001545;28;20470;-68
2022/10/26 12:01:16;;;;;;;7.17;2.20;;;26.20;11.50;;;;;;5003404;28;20486;-68
2022/10/26 12:03:47;;;;;;;6.10;2.00;;;26.70;10.70;;;;;;4996595;28;20488;-69
2022/10/26 12:06:17;;;;;;;12.20;2.33;;;27.30;10.10;;;;;;4996654;28;21031;-69
2022/10/26 12:08:51;;;;;;;8.00;1.90;;;27.50;8.60;;;;;;4999623;28;20468;-68
2022/10/26 12:11:33;;;;;;;5.50;1.90;;;27.30;8.40;;;;;;5006322;28;20452;-68
2022/10/26 12:14:06;;;;;;;7.53;2.53;;;27.40;8.30;;;;;;5008066;28;20482;-68
2022/10/26 12:16:47;;;;;;;11.33;2.37;;;27.50;7.80;;;;;;5004471;28;20463;-69
2022/10/26 12:19:21;;;;;;;5.13;2.20;;;27.70;7.40;;;;;;4999818;28;20540;-69
2022/10/26 12:21:50;;;;;;;7.97;2.20;;;27.80;7.30;;;;;;4998376;28;20460;-68
2022/10/26 12:24:28;;;;;;;9.00;2.37;;;27.70;6.70;;;;;;4996833;28;20516;-68
2022/10/26 12:26:57;;;;;;;8.70;2.20;;;27.70;7.10;;;;;;5000719;28;21024;-68
2022/10/26 12:29:36;;;;;;;11.00;2.37;;;27.50;7.40;;;;;;5000298;28;20831;-68
2022/10/26 12:32:20;;;;;;;7.50;2.50;;;26.80;7.20;;;;;;4997203;28;20499;-69
2022/10/26 12:34:59;;;;;;;6.93;2.80;;;26.30;8.50;;;;;;4984104;28;20466;-68
2022/10/26 12:37:35;;;;;;;7.33;2.43;;;25.50;9.70;;;;;;5002023;28;20803;-68
2022/10/26 12:40:40;;;;;;;5.90;1.80;;;24.90;10.50;;;;;;5006226;28;20535;-68
2022/10/26 12:43:33;;;;;;;11.43;2.40;;;24.40;11.70;;;;;;5003925;28;20525;-68
2022/10/26 12:46:39;;;;;;;10.30;2.30;;;24.00;12.50;;;;;;5005254;28;20471;-68
2022/10/26 12:49:56;;;;;;;7.20;2.77;;;23.70;13.30;;;;;;5004226;28;20506;-68
2022/10/26 12:52:41;;;;;;;6.40;3.60;;;23.50;14.10;;;;;;5000843;28;20479;-68
2022/10/26 12:55:41;;;;;;;8.00;3.37;;;23.30;14.80;;;;;;5005657;28;20456;-68
2022/10/26 12:58:41;;;;;;;11.40;6.80;;;23.10;15.20;;;;;;5003835;28;20999;-68
2022/10/26 13:01:55;;;;;;;11.40;6.07;;;23.00;15.60;;;;;;4976737;28;20479;-68
2022/10/26 13:04:59;;;;;;;9.40;2.60;;;22.90;16.40;;;;;;4999325;28;20453;-68
2022/10/26 13:07:27;;;;;;;28.73;6.40;;;22.80;16.40;;;;;;4970571;28;20821;-69
2022/10/26 13:10:01;;;;;;;9.13;3.03;;;22.70;17.00;;;;;;5008429;23;20491;-62